sensor_id;sensor_type;location;lat;lon;timestamp;pressure;altitude;pressure_sealevel;temperature;humidity
49055;BME280;35405;52.344;14.530;2022-09-09T04:54:22;100389.91;;;12.49;100.00
49055;BME280;35405;52.344;14.530;2022-09-09T04:56:47;100398.94;;;12.58;100.00
49055;BME280;35405;52.344;14.530;2022-09-09T04:59:12;100392.53;;;12.63;100.00
49055;BME280;35405;52.344;14.530;2022-09-09T05:01:37;100386.97;;;12.68;100.00
49055;BME280;35405;52.344;14.530;2022-09-09T05:04:03;100395.03;;;12.73;100.00
49055;BME280;35405;52.344;14.530;2022-09-09T05:06:28;100401.13;;;12.78;100.00
49055;BME280;35405;52.344;14.530;2022-09-09T05:08:56;100399.91;;;12.85;100.00
49055;BME280;35405;52.344;14.530;2022-09-09T05:11:23;100406.00;;;12.90;100.00
49055;BME280;35405;52.344;14.530;2022-09-09T05:13:49;100403.16;;;12.95;100.00
49055;BME280;35405;52.344;14.530;2022-09-09T05:16:15;100401.38;;;12.99;100.00
49055;BME280;35405;52.344;14.530;2022-09-09T05:18:41;100397.72;;;13.04;100.00
49055;BME280;35405;52.344;14.530;2022-09-09T05:21:07;100408.34;;;13.14;100.00
49055;BME280;35405;52.344;14.530;2022-09-09T05:23:36;100414.03;;;13.18;100.00
49055;BME280;35405;52.344;14.530;2022-09-09T05:26:02;100413.25;;;13.26;100.00
49055;BME280;35405;52.344;14.530;2022-09-09T05:28:28;100410.38;;;13.31;100.00
49055;BME280;35405;52.344;14.530;2022-09-09T05:30:57;100412.97;;;13.36;100.00
49055;BME280;35405;52.344;14.530;2022-09-09T05:33:23;100416.84;;;13.44;100.00
49055;BME280;35405;52.344;14.530;2022-09-09T05:35:54;100419.09;;;13.50;100.00
49055;BME280;35405;52.344;14.530;2022-09-09T05:38:21;100417.84;;;13.57;100.00
49055;BME280;35405;52.344;14.530;2022-09-09T05:40:49;100412.72;;;13.64;100.00
49055;BME280;35405;52.344;14.530;2022-09-09T05:43:15;100419.66;;;13.70;100.00
49055;BME280;35405;52.344;14.530;2022-09-09T05:45:40;100427.06;;;13.78;100.00
49055;BME280;35405;52.344;14.530;2022-09-09T05:48:05;100419.50;;;13.84;100.00
49055;BME280;35405;52.344;14.530;2022-09-09T05:50:30;100421.59;;;13.95;100.00
49055;BME280;35405;52.344;14.530;2022-09-09T05:52:56;100421.16;;;14.02;100.00
49055;BME280;35405;52.344;14.530;2022-09-09T05:55:21;100415.81;;;14.06;100.00
49055;BME280;35405;52.344;14.530;2022-09-09T05:57:50;100421.44;;;14.09;100.00
49055;BME280;35405;52.344;14.530;2022-09-09T06:00:17;100423.06;;;14.19;100.00
49055;BME280;35405;52.344;14.530;2022-09-09T06:02:42;100425.78;;;14.28;100.00
49055;BME280;35405;52.344;14.530;2022-09-09T06:05:07;100416.78;;;14.36;100.00
49055;BME280;35405;52.344;14.530;2022-09-09T06:07:33;100419.03;;;14.34;100.00
49055;BME280;35405;52.344;14.530;2022-09-09T06:09:58;100422.72;;;14.38;100.00
49055;BME280;35405;52.344;14.530;2022-09-09T06:12:25;100423.06;;;14.45;100.00
49055;BME280;35405;52.344;14.530;2022-09-09T06:14:50;100422.28;;;14.53;100.00
49055;BME280;35405;52.344;14.530;2022-09-09T06:17:16;100435.44;;;14.69;100.00
49055;BME280;35405;52.344;14.530;2022-09-09T06:19:42;100427.22;;;14.77;100.00
49055;BME280;35405;52.344;14.530;2022-09-09T06:22:07;100423.47;;;14.82;100.00
49055;BME280;35405;52.344;14.530;2022-09-09T06:24:37;100419.78;;;14.86;100.00
49055;BME280;35405;52.344;14.530;2022-09-09T06:27:02;100415.53;;;14.98;100.00
49055;BME280;35405;52.344;14.530;2022-09-09T06:29:28;100407.63;;;15.05;100.00
49055;BME280;35405;52.344;14.530;2022-09-09T06:31:53;100404.25;;;14.99;100.00
49055;BME280;35405;52.344;14.530;2022-09-09T06:34:18;100408.63;;;14.92;100.00
49055;BME280;35405;52.344;14.530;2022-09-09T06:36:43;100412.78;;;14.98;100.00
49055;BME280;35405;52.344;14.530;2022-09-09T06:39:10;100422.59;;;15.07;100.00
49055;BME280;35405;52.344;14.530;2022-09-09T06:41:44;100423.50;;;15.20;100.00
49055;BME280;35405;52.344;14.530;2022-09-09T06:44:10;100418.75;;;15.38;100.00
49055;BME280;35405;52.344;14.530;2022-09-09T06:46:38;100427.56;;;15.52;100.00
49055;BME280;35405;52.344;14.530;2022-09-09T06:49:04;100435.25;;;15.68;100.00
49055;BME280;35405;52.344;14.530;2022-09-09T06:51:30;100432.72;;;15.84;100.00
49055;BME280;35405;52.344;14.530;2022-09-09T06:53:56;100437.78;;;15.94;100.00
49055;BME280;35405;52.344;14.530;2022-09-09T06:56:29;100439.34;;;16.04;100.00
49055;BME280;35405;52.344;14.530;2022-09-09T06:58:56;100439.69;;;16.02;100.00
49055;BME280;35405;52.344;14.530;2022-09-09T07:01:23;100443.69;;;16.05;100.00
49055;BME280;35405;52.344;14.530;2022-09-09T07:03:49;100440.94;;;16.26;100.00
49055;BME280;35405;52.344;14.530;2022-09-09T07:06:25;100446.97;;;16.40;100.00
49055;BME280;35405;52.344;14.530;2022-09-09T07:08:51;100438.91;;;16.56;100.00
49055;BME280;35405;52.344;14.530;2022-09-09T07:11:17;100441.56;;;16.64;100.00
49055;BME280;35405;52.344;14.530;2022-09-09T07:13:43;100440.53;;;16.69;100.00
49055;BME280;35405;52.344;14.530;2022-09-09T07:16:09;100437.91;;;16.73;100.00
49055;BME280;35405;52.344;14.530;2022-09-09T07:18:35;100429.06;;;16.76;100.00
49055;BME280;35405;52.344;14.530;2022-09-09T07:21:01;100436.88;;;16.98;100.00
49055;BME280;35405;52.344;14.530;2022-09-09T07:23:27;100446.97;;;17.19;100.00
49055;BME280;35405;52.344;14.530;2022-09-09T07:25:52;100442.19;;;17.28;100.00
49055;BME280;35405;52.344;14.530;2022-09-09T07:28:18;100449.38;;;17.45;100.00
49055;BME280;35405;52.344;14.530;2022-09-09T07:30:43;100453.66;;;17.54;100.00
49055;BME280;35405;52.344;14.530;2022-09-09T07:33:09;100465.22;;;17.60;100.00
49055;BME280;35405;52.344;14.530;2022-09-09T07:35:37;100464.06;;;17.61;100.00
49055;BME280;35405;52.344;14.530;2022-09-09T07:38:02;100456.59;;;17.62;100.00
49055;BME280;35405;52.344;14.530;2022-09-09T07:40:31;100463.47;;;17.68;100.00
49055;BME280;35405;52.344;14.530;2022-09-09T07:42:57;100471.28;;;17.78;100.00
49055;BME280;35405;52.344;14.530;2022-09-09T07:45:22;100475.16;;;17.77;100.00
49055;BME280;35405;52.344;14.530;2022-09-09T07:47:47;100473.72;;;17.79;100.00
49055;BME280;35405;52.344;14.530;2022-09-09T07:50:13;100477.91;;;18.01;100.00
49055;BME280;35405;52.344;14.530;2022-09-09T07:52:40;100484.47;;;18.37;100.00
49055;BME280;35405;52.344;14.530;2022-09-09T07:55:05;100482.19;;;18.67;100.00
49055;BME280;35405;52.344;14.530;2022-09-09T07:57:30;100475.03;;;18.79;100.00
49055;BME280;35405;52.344;14.530;2022-09-09T07:59:56;100472.28;;;18.79;100.00
49055;BME280;35405;52.344;14.530;2022-09-09T08:02:22;100477.75;;;18.91;100.00
49055;BME280;35405;52.344;14.530;2022-09-09T08:04:47;100490.19;;;19.01;100.00
49055;BME280;35405;52.344;14.530;2022-09-09T08:07:13;100493.69;;;19.13;100.00
49055;BME280;35405;52.344;14.530;2022-09-09T08:09:38;100482.69;;;19.13;100.00
49055;BME280;35405;52.344;14.530;2022-09-09T08:12:04;100494.84;;;19.12;100.00
49055;BME280;35405;52.344;14.530;2022-09-09T08:14:31;100501.69;;;19.03;100.00
49055;BME280;35405;52.344;14.530;2022-09-09T08:16:56;100504.59;;;18.94;100.00
49055;BME280;35405;52.344;14.530;2022-09-09T08:19:22;100503.78;;;18.93;100.00
49055;BME280;35405;52.344;14.530;2022-09-09T08:21:48;100513.41;;;19.00;100.00
49055;BME280;35405;52.344;14.530;2022-09-09T08:24:16;100508.16;;;18.94;100.00
49055;BME280;35405;52.344;14.530;2022-09-09T08:26:44;100504.25;;;18.95;100.00
49055;BME280;35405;52.344;14.530;2022-09-09T08:29:10;100515.28;;;18.95;100.00
49055;BME280;35405;52.344;14.530;2022-09-09T08:31:37;100509.31;;;18.93;100.00
49055;BME280;35405;52.344;14.530;2022-09-09T08:34:03;100514.72;;;18.90;100.00
49055;BME280;35405;52.344;14.530;2022-09-09T08:36:30;100504.84;;;18.89;100.00
49055;BME280;35405;52.344;14.530;2022-09-09T08:38:58;100513.56;;;18.91;100.00
49055;BME280;35405;52.344;14.530;2022-09-09T08:47:04;100521.34;;;19.17;100.00
49055;BME280;35405;52.344;14.530;2022-09-09T08:51:57;100524.91;;;19.49;100.00
49055;BME280;35405;52.344;14.530;2022-09-09T08:54:23;100521.19;;;19.57;100.00
49055;BME280;35405;52.344;14.530;2022-09-09T08:56:51;100528.41;;;19.62;100.00
49055;BME280;35405;52.344;14.530;2022-09-09T08:59:17;100528.75;;;19.60;100.00
49055;BME280;35405;52.344;14.530;2022-09-09T09:07:31;100527.00;;;19.84;100.00
49055;BME280;35405;52.344;14.530;2022-09-09T09:12:39;100515.56;;;20.01;100.00
49055;BME280;35405;52.344;14.530;2022-09-09T09:15:17;100516.25;;;20.14;100.00
49055;BME280;35405;52.344;14.530;2022-09-09T09:17:43;100514.41;;;20.38;100.00
49055;BME280;35405;52.344;14.530;2022-09-09T09:20:18;100512.75;;;20.52;100.00
49055;BME280;35405;52.344;14.530;2022-09-09T09:22:50;100515.94;;;20.54;100.00
49055;BME280;35405;52.344;14.530;2022-09-09T09:25:23;100518.56;;;20.67;100.00
49055;BME280;35405;52.344;14.530;2022-09-09T09:33:15;100512.84;;;21.64;100.00
49055;BME280;35405;52.344;14.530;2022-09-09T09:35:43;100516.66;;;22.05;100.00
49055;BME280;35405;52.344;14.530;2022-09-09T09:38:12;100506.47;;;22.13;100.00
49055;BME280;35405;52.344;14.530;2022-09-09T09:40:48;100503.06;;;22.23;100.00
49055;BME280;35405;52.344;14.530;2022-09-09T09:43:18;100508.81;;;22.11;100.00
49055;BME280;35405;52.344;14.530;2022-09-09T09:45:45;100504.69;;;22.24;100.00
49055;BME280;35405;52.344;14.530;2022-09-09T09:48:11;100507.97;;;22.33;100.00
49055;BME280;35405;52.344;14.530;2022-09-09T09:50:46;100507.88;;;22.26;100.00
49055;BME280;35405;52.344;14.530;2022-09-09T09:53:31;100508.75;;;22.34;100.00
49055;BME280;35405;52.344;14.530;2022-09-09T09:58:22;100511.94;;;22.66;100.00
49055;BME280;35405;52.344;14.530;2022-09-09T10:00:49;100510.47;;;22.76;100.00
49055;BME280;35405;52.344;14.530;2022-09-09T10:03:19;100500.06;;;22.66;100.00
49055;BME280;35405;52.344;14.530;2022-09-09T10:05:46;100501.16;;;22.27;100.00
49055;BME280;35405;52.344;14.530;2022-09-09T10:08:15;100501.47;;;21.96;100.00
49055;BME280;35405;52.344;14.530;2022-09-09T10:18:41;100504.88;;;21.85;100.00
49055;BME280;35405;52.344;14.530;2022-09-09T10:36:46;100518.25;;;22.06;100.00
49055;BME280;35405;52.344;14.530;2022-09-09T10:42:08;100515.97;;;22.12;100.00
49055;BME280;35405;52.344;14.530;2022-09-09T11:00:15;100522.81;;;22.18;100.00
49055;BME280;35405;52.344;14.530;2022-09-09T11:02:41;100521.63;;;22.19;100.00
49055;BME280;35405;52.344;14.530;2022-09-09T11:05:49;100516.72;;;22.09;100.00
49055;BME280;35405;52.344;14.530;2022-09-09T11:07:56;100522.06;;;22.21;100.00
49055;BME280;35405;52.344;14.530;2022-09-09T11:10:30;100518.25;;;22.33;100.00
49055;BME280;35405;52.344;14.530;2022-09-09T11:13:01;100521.72;;;22.26;100.00
49055;BME280;35405;52.344;14.530;2022-09-09T11:16:04;100520.31;;;21.86;100.00
49055;BME280;35405;52.344;14.530;2022-09-09T11:18:21;100518.28;;;22.10;100.00
49055;BME280;35405;52.344;14.530;2022-09-09T11:20:48;100513.50;;;22.33;100.00
49055;BME280;35405;52.344;14.530;2022-09-09T11:23:23;100523.38;;;22.31;100.00
49055;BME280;35405;52.344;14.530;2022-09-09T11:25:56;100518.72;;;22.39;100.00
49055;BME280;35405;52.344;14.530;2022-09-09T11:31:14;100520.13;;;22.25;100.00
49055;BME280;35405;52.344;14.530;2022-09-09T11:33:46;100514.81;;;22.43;100.00
49055;BME280;35405;52.344;14.530;2022-09-09T11:36:31;100509.59;;;22.38;100.00
49055;BME280;35405;52.344;14.530;2022-09-09T11:39:17;100509.97;;;22.36;100.00
49055;BME280;35405;52.344;14.530;2022-09-09T11:41:48;100511.00;;;22.55;100.00
49055;BME280;35405;52.344;14.530;2022-09-09T11:44:18;100514.09;;;22.50;100.00
49055;BME280;35405;52.344;14.530;2022-09-09T11:46:46;100505.66;;;22.73;100.00
49055;BME280;35405;52.344;14.530;2022-09-09T11:51:58;100504.75;;;22.95;100.00
49055;BME280;35405;52.344;14.530;2022-09-09T11:54:28;100498.97;;;23.11;100.00
49055;BME280;35405;52.344;14.530;2022-09-09T11:56:54;100493.44;;;23.11;100.00
49055;BME280;35405;52.344;14.530;2022-09-09T11:59:20;100500.22;;;23.17;100.00
49055;BME280;35405;52.344;14.530;2022-09-09T12:01:59;100497.47;;;23.17;100.00
49055;BME280;35405;52.344;14.530;2022-09-09T12:07:05;100494.97;;;23.05;100.00
49055;BME280;35405;52.344;14.530;2022-09-09T12:09:52;100491.81;;;23.10;100.00
49055;BME280;35405;52.344;14.530;2022-09-09T12:12:23;100489.66;;;23.34;100.00
49055;BME280;35405;52.344;14.530;2022-09-09T12:15:02;100488.50;;;23.35;100.00
49055;BME280;35405;52.344;14.530;2022-09-09T12:17:29;100496.50;;;22.99;100.00
49055;BME280;35405;52.344;14.530;2022-09-09T12:22:58;100483.56;;;23.62;100.00
49055;BME280;35405;52.344;14.530;2022-09-09T12:33:12;100483.91;;;23.09;100.00
49055;BME280;35405;52.344;14.530;2022-09-09T12:35:38;100484.53;;;22.95;100.00
49055;BME280;35405;52.344;14.530;2022-09-09T12:38:04;100486.88;;;22.59;100.00
49055;BME280;35405;52.344;14.530;2022-09-09T12:40:32;100482.34;;;22.44;100.00
49055;BME280;35405;52.344;14.530;2022-09-09T12:43:00;100479.69;;;22.51;100.00
49055;BME280;35405;52.344;14.530;2022-09-09T12:45:27;100480.09;;;22.87;100.00
49055;BME280;35405;52.344;14.530;2022-09-09T12:50:20;100482.56;;;23.40;100.00
49055;BME280;35405;52.344;14.530;2022-09-09T12:52:46;100484.66;;;23.50;100.00
49055;BME280;35405;52.344;14.530;2022-09-09T12:55:17;100489.03;;;23.51;100.00
49055;BME280;35405;52.344;14.530;2022-09-09T12:57:42;100483.78;;;23.42;100.00
49055;BME280;35405;52.344;14.530;2022-09-09T13:00:15;100470.09;;;23.19;100.00
49055;BME280;35405;52.344;14.530;2022-09-09T13:02:48;100473.34;;;22.88;100.00
49055;BME280;35405;52.344;14.530;2022-09-09T13:05:16;100485.72;;;22.60;100.00
49055;BME280;35405;52.344;14.530;2022-09-09T13:07:42;100468.56;;;22.85;100.00
49055;BME280;35405;52.344;14.530;2022-09-09T13:10:10;100465.03;;;23.28;100.00
49055;BME280;35405;52.344;14.530;2022-09-09T13:12:35;100454.81;;;23.40;100.00
49055;BME280;35405;52.344;14.530;2022-09-09T13:15:01;100458.75;;;23.32;100.00
49055;BME280;35405;52.344;14.530;2022-09-09T13:17:27;100458.53;;;23.10;100.00
49055;BME280;35405;52.344;14.530;2022-09-09T13:19:55;100452.22;;;23.13;100.00
49055;BME280;35405;52.344;14.530;2022-09-09T13:22:31;100448.38;;;23.28;100.00
49055;BME280;35405;52.344;14.530;2022-09-09T13:25:00;100442.63;;;23.51;100.00
49055;BME280;35405;52.344;14.530;2022-09-09T13:29:55;100430.56;;;23.81;100.00
49055;BME280;35405;52.344;14.530;2022-09-09T13:32:22;100437.75;;;23.93;100.00
49055;BME280;35405;52.344;14.530;2022-09-09T13:34:51;100431.06;;;24.05;100.00
49055;BME280;35405;52.344;14.530;2022-09-09T13:37:20;100423.91;;;24.04;100.00
49055;BME280;35405;52.344;14.530;2022-09-09T13:39:50;100434.19;;;23.89;100.00
49055;BME280;35405;52.344;14.530;2022-09-09T13:42:28;100432.28;;;23.48;100.00
49055;BME280;35405;52.344;14.530;2022-09-09T13:44:55;100434.75;;;23.09;100.00
49055;BME280;35405;52.344;14.530;2022-09-09T13:47:36;100442.66;;;23.07;100.00
49055;BME280;35405;52.344;14.530;2022-09-09T13:52:46;100443.22;;;22.86;100.00
49055;BME280;35405;52.344;14.530;2022-09-09T13:55:12;100440.69;;;22.70;100.00
49055;BME280;35405;52.344;14.530;2022-09-09T13:57:38;100440.53;;;22.56;100.00
49055;BME280;35405;52.344;14.530;2022-09-09T14:00:03;100431.63;;;22.40;100.00
49055;BME280;35405;52.344;14.530;2022-09-09T14:02:28;100432.34;;;22.33;100.00
49055;BME280;35405;52.344;14.530;2022-09-09T14:04:56;100431.50;;;22.29;100.00
49055;BME280;35405;52.344;14.530;2022-09-09T14:07:21;100431.00;;;22.20;100.00
49055;BME280;35405;52.344;14.530;2022-09-09T14:09:46;100425.69;;;22.11;100.00
49055;BME280;35405;52.344;14.530;2022-09-09T14:12:15;100431.19;;;22.07;100.00
49055;BME280;35405;52.344;14.530;2022-09-09T14:14:40;100432.72;;;22.01;100.00
49055;BME280;35405;52.344;14.530;2022-09-09T14:17:07;100433.03;;;21.96;100.00
49055;BME280;35405;52.344;14.530;2022-09-09T14:19:32;100428.19;;;21.89;100.00
49055;BME280;35405;52.344;14.530;2022-09-09T14:21:57;100422.66;;;21.89;100.00
49055;BME280;35405;52.344;14.530;2022-09-09T14:24:23;100432.09;;;21.85;100.00
49055;BME280;35405;52.344;14.530;2022-09-09T14:26:50;100433.66;;;21.82;100.00
49055;BME280;35405;52.344;14.530;2022-09-09T14:29:15;100434.75;;;21.78;100.00
49055;BME280;35405;52.344;14.530;2022-09-09T14:31:40;100442.25;;;21.77;100.00
49055;BME280;35405;52.344;14.530;2022-09-09T14:34:06;100431.97;;;21.78;100.00
49055;BME280;35405;52.344;14.530;2022-09-09T14:36:31;100442.38;;;21.84;100.00
49055;BME280;35405;52.344;14.530;2022-09-09T14:38:56;100435.28;;;21.87;100.00
49055;BME280;35405;52.344;14.530;2022-09-09T14:41:22;100438.19;;;21.98;100.00
49055;BME280;35405;52.344;14.530;2022-09-09T14:43:48;100441.44;;;22.03;100.00
49055;BME280;35405;52.344;14.530;2022-09-09T14:46:15;100449.31;;;22.01;100.00
49055;BME280;35405;52.344;14.530;2022-09-09T14:48:40;100447.78;;;22.04;100.00
49055;BME280;35405;52.344;14.530;2022-09-09T14:51:11;100447.94;;;22.14;100.00
49055;BME280;35405;52.344;14.530;2022-09-09T14:53:37;100443.44;;;22.33;100.00
49055;BME280;35405;52.344;14.530;2022-09-09T14:56:03;100441.72;;;22.55;100.00
49055;BME280;35405;52.344;14.530;2022-09-09T14:58:32;100442.28;;;22.71;100.00
49055;BME280;35405;52.344;14.530;2022-09-09T15:01:04;100444.78;;;22.83;100.00
49055;BME280;35405;52.344;14.530;2022-09-09T15:03:29;100434.84;;;22.79;100.00
49055;BME280;35405;52.344;14.530;2022-09-09T15:05:55;100437.19;;;22.77;100.00
49055;BME280;35405;52.344;14.530;2022-09-09T15:08:20;100425.09;;;22.58;100.00
49055;BME280;35405;52.344;14.530;2022-09-09T15:10:46;100425.59;;;22.30;100.00
49055;BME280;35405;52.344;14.530;2022-09-09T15:13:14;100413.44;;;22.08;100.00
49055;BME280;35405;52.344;14.530;2022-09-09T15:15:39;100417.59;;;21.95;100.00
49055;BME280;35405;52.344;14.530;2022-09-09T15:18:06;100422.19;;;21.84;100.00
49055;BME280;35405;52.344;14.530;2022-09-09T15:20:31;100419.75;;;21.79;100.00
49055;BME280;35405;52.344;14.530;2022-09-09T15:22:57;100429.13;;;21.71;100.00
49055;BME280;35405;52.344;14.530;2022-09-09T15:25:22;100418.28;;;21.58;100.00
49055;BME280;35405;52.344;14.530;2022-09-09T15:27:47;100424.00;;;21.46;100.00
49055;BME280;35405;52.344;14.530;2022-09-09T15:30:13;100428.50;;;21.31;100.00
49055;BME280;35405;52.344;14.530;2022-09-09T15:32:38;100430.66;;;21.18;100.00
49055;BME280;35405;52.344;14.530;2022-09-09T15:35:04;100417.50;;;21.12;100.00
49055;BME280;35405;52.344;14.530;2022-09-09T15:37:30;100421.94;;;21.16;100.00
49055;BME280;35405;52.344;14.530;2022-09-09T15:39:55;100415.41;;;21.28;100.00
49055;BME280;35405;52.344;14.530;2022-09-09T15:42:23;100407.78;;;21.44;100.00
49055;BME280;35405;52.344;14.530;2022-09-09T15:44:50;100395.59;;;21.49;100.00
49055;BME280;35405;52.344;14.530;2022-09-09T15:47:15;100397.84;;;21.40;100.00
49055;BME280;35405;52.344;14.530;2022-09-09T15:49:41;100407.41;;;21.23;100.00
49055;BME280;35405;52.344;14.530;2022-09-09T15:52:08;100410.88;;;20.93;100.00
49055;BME280;35405;52.344;14.530;2022-09-09T15:54:35;100415.16;;;20.68;100.00
49055;BME280;35405;52.344;14.530;2022-09-09T15:57:04;100430.06;;;20.44;100.00
49055;BME280;35405;52.344;14.530;2022-09-09T15:59:30;100430.00;;;20.21;100.00
49055;BME280;35405;52.344;14.530;2022-09-09T16:01:56;100440.72;;;20.06;100.00
49055;BME280;35405;52.344;14.530;2022-09-09T16:04:22;100433.88;;;20.00;100.00
49055;BME280;35405;52.344;14.530;2022-09-09T16:06:51;100447.09;;;19.91;100.00
49055;BME280;35405;52.344;14.530;2022-09-09T16:09:16;100449.72;;;19.84;100.00
49055;BME280;35405;52.344;14.530;2022-09-09T16:11:42;100445.19;;;19.76;100.00
49055;BME280;35405;52.344;14.530;2022-09-09T16:14:07;100447.41;;;19.70;100.00
49055;BME280;35405;52.344;14.530;2022-09-09T16:16:32;100443.16;;;19.57;100.00
49055;BME280;35405;52.344;14.530;2022-09-09T16:19:03;100452.16;;;19.38;100.00
49055;BME280;35405;52.344;14.530;2022-09-09T16:21:30;100458.03;;;19.21;100.00
49055;BME280;35405;52.344;14.530;2022-09-09T16:23:57;100457.88;;;19.13;100.00
49055;BME280;35405;52.344;14.530;2022-09-09T16:26:24;100462.38;;;19.06;100.00
49055;BME280;35405;52.344;14.530;2022-09-09T16:28:50;100460.94;;;18.96;100.00
49055;BME280;35405;52.344;14.530;2022-09-09T16:31:17;100456.31;;;18.84;100.00
49055;BME280;35405;52.344;14.530;2022-09-09T16:33:42;100460.72;;;18.73;100.00
49055;BME280;35405;52.344;14.530;2022-09-09T16:36:10;100468.41;;;18.67;100.00
49055;BME280;35405;52.344;14.530;2022-09-09T16:38:36;100466.16;;;18.57;100.00
49055;BME280;35405;52.344;14.530;2022-09-09T16:41:02;100477.34;;;18.48;100.00
49055;BME280;35405;52.344;14.530;2022-09-09T16:43:27;100470.47;;;18.42;100.00
49055;BME280;35405;52.344;14.530;2022-09-09T16:45:53;100476.91;;;18.34;100.00
49055;BME280;35405;52.344;14.530;2022-09-09T16:48:18;100474.75;;;18.27;100.00
49055;BME280;35405;52.344;14.530;2022-09-09T16:50:44;100481.56;;;18.18;100.00
49055;BME280;35405;52.344;14.530;2022-09-09T16:53:10;100494.28;;;18.10;100.00
49055;BME280;35405;52.344;14.530;2022-09-09T16:55:40;100500.28;;;18.00;100.00
49055;BME280;35405;52.344;14.530;2022-09-09T16:58:06;100490.06;;;18.00;100.00
49055;BME280;35405;52.344;14.530;2022-09-09T17:00:31;100496.72;;;18.12;100.00
49055;BME280;35405;52.344;14.530;2022-09-09T17:02:56;100490.88;;;18.01;100.00
49055;BME280;35405;52.344;14.530;2022-09-09T17:05:21;100495.69;;;17.92;100.00
49055;BME280;35405;52.344;14.530;2022-09-09T17:07:48;100482.88;;;17.83;100.00
49055;BME280;35405;52.344;14.530;2022-09-09T17:10:13;100475.75;;;17.70;100.00
49055;BME280;35405;52.344;14.530;2022-09-09T17:12:38;100478.72;;;17.65;100.00
49055;BME280;35405;52.344;14.530;2022-09-09T17:15:05;100482.94;;;17.63;100.00
49055;BME280;35405;52.344;14.530;2022-09-09T17:17:30;100482.25;;;17.66;100.00
49055;BME280;35405;52.344;14.530;2022-09-09T17:19:56;100473.09;;;17.74;100.00
49055;BME280;35405;52.344;14.530;2022-09-09T17:22:21;100473.91;;;17.87;100.00
49055;BME280;35405;52.344;14.530;2022-09-09T17:24:48;100470.81;;;18.00;100.00
49055;BME280;35405;52.344;14.530;2022-09-09T17:27:13;100471.28;;;18.02;100.00
49055;BME280;35405;52.344;14.530;2022-09-09T17:29:38;100465.78;;;17.90;100.00
49055;BME280;35405;52.344;14.530;2022-09-09T17:32:04;100452.97;;;17.82;100.00
49055;BME280;35405;52.344;14.530;2022-09-09T17:34:33;100452.59;;;17.71;100.00
49055;BME280;35405;52.344;14.530;2022-09-09T17:36:59;100452.47;;;17.68;100.00
49055;BME280;35405;52.344;14.530;2022-09-09T17:39:24;100435.19;;;17.67;100.00
49055;BME280;35405;52.344;14.530;2022-09-09T17:41:49;100425.09;;;17.59;100.00
49055;BME280;35405;52.344;14.530;2022-09-09T17:44:15;100417.44;;;17.52;100.00
49055;BME280;35405;52.344;14.530;2022-09-09T17:46:41;100416.75;;;17.43;100.00
49055;BME280;35405;52.344;14.530;2022-09-09T17:49:08;100407.59;;;17.39;100.00
49055;BME280;35405;52.344;14.530;2022-09-09T17:51:34;100420.50;;;17.38;100.00
49055;BME280;35405;52.344;14.530;2022-09-09T17:54:01;100440.69;;;17.43;100.00
49055;BME280;35405;52.344;14.530;2022-09-09T17:56:29;100450.22;;;17.45;100.00
49055;BME280;35405;52.344;14.530;2022-09-09T17:58:58;100453.66;;;17.42;100.00
49055;BME280;35405;52.344;14.530;2022-09-09T18:01:28;100469.31;;;17.42;100.00
49055;BME280;35405;52.344;14.530;2022-09-09T18:03:55;100478.72;;;17.41;100.00
49055;BME280;35405;52.344;14.530;2022-09-09T18:06:26;100473.09;;;17.37;100.00
49055;BME280;35405;52.344;14.530;2022-09-09T18:08:56;100473.31;;;17.32;100.00
49055;BME280;35405;52.344;14.530;2022-09-09T18:11:22;100486.16;;;17.28;100.00
49055;BME280;35405;52.344;14.530;2022-09-09T18:13:48;100496.22;;;17.24;100.00
49055;BME280;35405;52.344;14.530;2022-09-09T18:16:14;100507.69;;;17.26;100.00
49055;BME280;35405;52.344;14.530;2022-09-09T18:18:39;100517.50;;;17.27;100.00
49055;BME280;35405;52.344;14.530;2022-09-09T18:21:06;100519.03;;;17.24;100.00
49055;BME280;35405;52.344;14.530;2022-09-09T18:23:35;100522.91;;;17.23;100.00
49055;BME280;35405;52.344;14.530;2022-09-09T18:26:05;100526.56;;;17.15;100.00
49055;BME280;35405;52.344;14.530;2022-09-09T18:28:31;100548.06;;;17.13;100.00
49055;BME280;35405;52.344;14.530;2022-09-09T18:30:56;100554.38;;;17.13;100.00
49055;BME280;35405;52.344;14.530;2022-09-09T18:33:21;100576.28;;;17.22;100.00
49055;BME280;35405;52.344;14.530;2022-09-09T18:35:46;100586.03;;;17.32;100.00
49055;BME280;35405;52.344;14.530;2022-09-09T18:38:12;100576.91;;;17.40;100.00
49055;BME280;35405;52.344;14.530;2022-09-09T18:40:38;100569.94;;;17.55;100.00
49055;BME280;35405;52.344;14.530;2022-09-09T18:43:03;100544.84;;;17.69;100.00
49055;BME280;35405;52.344;14.530;2022-09-09T18:45:29;100554.47;;;17.75;100.00
49055;BME280;35405;52.344;14.530;2022-09-09T18:47:55;100544.97;;;17.72;100.00
49055;BME280;35405;52.344;14.530;2022-09-09T18:50:20;100546.47;;;17.70;100.00
49055;BME280;35405;52.344;14.530;2022-09-09T18:52:46;100561.59;;;17.64;100.00
49055;BME280;35405;52.344;14.530;2022-09-09T18:55:11;100561.34;;;17.56;100.00
49055;BME280;35405;52.344;14.530;2022-09-09T18:57:36;100570.25;;;17.53;100.00